sensor_id;sensor_type;location;lat;lon;timestamp;temperature;humidity
25170;DHT22;13129;48.012;10.352;2023-02-01T04:31:48;1.70;99.90
25170;DHT22;13129;48.012;10.352;2023-02-01T04:34:14;1.70;99.90
25170;DHT22;13129;48.012;10.352;2023-02-01T04:36:40;1.70;99.90
25170;DHT22;13129;48.012;10.352;2023-02-01T04:39:06;1.70;99.90
25170;DHT22;13129;48.012;10.352;2023-02-01T04:41:31;1.80;99.90
25170;DHT22;13129;48.012;10.352;2023-02-01T04:43:57;1.70;99.90
25170;DHT22;13129;48.012;10.352;2023-02-01T04:46:23;1.70;99.90
25170;DHT22;13129;48.012;10.352;2023-02-01T04:48:49;1.70;99.90
25170;DHT22;13129;48.012;10.352;2023-02-01T04:51:14;1.80;99.90
25170;DHT22;13129;48.012;10.352;2023-02-01T04:53:40;1.80;99.90
25170;DHT22;13129;48.012;10.352;2023-02-01T04:56:06;1.70;99.90
25170;DHT22;13129;48.012;10.352;2023-02-01T04:58:32;1.70;99.90
25170;DHT22;13129;48.012;10.352;2023-02-01T05:00:58;1.70;99.90
25170;DHT22;13129;48.012;10.352;2023-02-01T05:03:23;1.70;99.90
25170;DHT22;13129;48.012;10.352;2023-02-01T05:05:49;1.70;99.90
25170;DHT22;13129;48.012;10.352;2023-02-01T05:08:15;1.70;99.90
25170;DHT22;13129;48.012;10.352;2023-02-01T05:10:41;1.70;99.90
25170;DHT22;13129;48.012;10.352;2023-02-01T05:13:08;1.70;99.90
25170;DHT22;13129;48.012;10.352;2023-02-01T05:15:52;1.70;99.90
25170;DHT22;13129;48.012;10.352;2023-02-01T05:18:18;1.70;99.90
25170;DHT22;13129;48.012;10.352;2023-02-01T05:20:44;1.60;99.90
25170;DHT22;13129;48.012;10.352;2023-02-01T05:23:09;1.70;99.90
25170;DHT22;13129;48.012;10.352;2023-02-01T05:25:35;1.70;99.90
25170;DHT22;13129;48.012;10.352;2023-02-01T05:28:00;1.70;99.90
25170;DHT22;13129;48.012;10.352;2023-02-01T05:30:26;1.70;99.90
25170;DHT22;13129;48.012;10.352;2023-02-01T05:32:52;1.70;99.90
25170;DHT22;13129;48.012;10.352;2023-02-01T05:35:18;1.70;99.90
25170;DHT22;13129;48.012;10.352;2023-02-01T05:37:44;1.70;99.90
25170;DHT22;13129;48.012;10.352;2023-02-01T05:40:10;1.70;99.90
25170;DHT22;13129;48.012;10.352;2023-02-01T05:42:36;1.70;99.90
25170;DHT22;13129;48.012;10.352;2023-02-01T05:45:02;1.70;99.90
25170;DHT22;13129;48.012;10.352;2023-02-01T05:47:28;1.70;99.90
25170;DHT22;13129;48.012;10.352;2023-02-01T05:49:54;1.70;99.90
25170;DHT22;13129;48.012;10.352;2023-02-01T05:52:19;1.70;99.90
25170;DHT22;13129;48.012;10.352;2023-02-01T05:54:46;1.60;99.90
25170;DHT22;13129;48.012;10.352;2023-02-01T05:57:13;1.70;99.90
25170;DHT22;13129;48.012;10.352;2023-02-01T05:59:39;1.70;99.90
25170;DHT22;13129;48.012;10.352;2023-02-01T06:02:10;1.70;99.90
25170;DHT22;13129;48.012;10.352;2023-02-01T06:04:36;1.70;99.90
25170;DHT22;13129;48.012;10.352;2023-02-01T06:07:02;1.70;99.90
25170;DHT22;13129;48.012;10.352;2023-02-01T06:09:27;1.80;99.90
25170;DHT22;13129;48.012;10.352;2023-02-01T06:11:54;1.70;99.90
25170;DHT22;13129;48.012;10.352;2023-02-01T06:14:20;1.70;99.90
25170;DHT22;13129;48.012;10.352;2023-02-01T06:16:46;1.70;99.90
25170;DHT22;13129;48.012;10.352;2023-02-01T06:19:12;1.70;99.90
25170;DHT22;13129;48.012;10.352;2023-02-01T06:21:38;1.70;99.90
25170;DHT22;13129;48.012;10.352;2023-02-01T06:24:04;1.60;99.90
25170;DHT22;13129;48.012;10.352;2023-02-01T06:26:29;1.70;99.90
25170;DHT22;13129;48.012;10.352;2023-02-01T06:28:55;1.60;99.90
25170;DHT22;13129;48.012;10.352;2023-02-01T06:31:22;1.80;99.90
25170;DHT22;13129;48.012;10.352;2023-02-01T06:33:48;1.60;99.90
25170;DHT22;13129;48.012;10.352;2023-02-01T06:36:14;1.60;99.90
25170;DHT22;13129;48.012;10.352;2023-02-01T06:38:41;1.70;99.90
25170;DHT22;13129;48.012;10.352;2023-02-01T06:41:07;1.70;99.90
25170;DHT22;13129;48.012;10.352;2023-02-01T06:43:34;1.70;99.90
25170;DHT22;13129;48.012;10.352;2023-02-01T06:46:05;1.70;99.90
25170;DHT22;13129;48.012;10.352;2023-02-01T06:48:33;1.70;99.90
25170;DHT22;13129;48.012;10.352;2023-02-01T06:50:59;1.70;99.90
25170;DHT22;13129;48.012;10.352;2023-02-01T06:53:25;1.70;99.90
25170;DHT22;13129;48.012;10.352;2023-02-01T06:56:02;1.70;99.90
25170;DHT22;13129;48.012;10.352;2023-02-01T06:58:29;1.70;99.90
25170;DHT22;13129;48.012;10.352;2023-02-01T07:00:55;1.70;99.90
25170;DHT22;13129;48.012;10.352;2023-02-01T07:03:20;1.70;99.90
25170;DHT22;13129;48.012;10.352;2023-02-01T07:05:46;1.70;99.90
25170;DHT22;13129;48.012;10.352;2023-02-01T07:08:12;1.90;99.90
25170;DHT22;13129;48.012;10.352;2023-02-01T07:10:38;1.70;99.90
25170;DHT22;13129;48.012;10.352;2023-02-01T07:13:04;1.70;99.90
25170;DHT22;13129;48.012;10.352;2023-02-01T07:15:30;1.80;99.90
25170;DHT22;13129;48.012;10.352;2023-02-01T07:17:55;1.80;99.90
25170;DHT22;13129;48.012;10.352;2023-02-01T07:20:22;1.80;99.90
25170;DHT22;13129;48.012;10.352;2023-02-01T07:22:48;1.80;99.90
25170;DHT22;13129;48.012;10.352;2023-02-01T07:25:14;1.80;99.90
25170;DHT22;13129;48.012;10.352;2023-02-01T07:27:40;1.80;99.90
25170;DHT22;13129;48.012;10.352;2023-02-01T07:30:06;1.80;99.90
25170;DHT22;13129;48.012;10.352;2023-02-01T07:32:32;1.90;99.90
25170;DHT22;13129;48.012;10.352;2023-02-01T07:34:58;1.80;99.90
25170;DHT22;13129;48.012;10.352;2023-02-01T07:37:24;1.90;99.90
25170;DHT22;13129;48.012;10.352;2023-02-01T07:39:51;2.00;99.90
25170;DHT22;13129;48.012;10.352;2023-02-01T07:42:17;2.00;99.90
25170;DHT22;13129;48.012;10.352;2023-02-01T07:44:43;2.00;99.90
25170;DHT22;13129;48.012;10.352;2023-02-01T07:47:08;2.00;99.90
25170;DHT22;13129;48.012;10.352;2023-02-01T07:49:34;2.10;99.90
25170;DHT22;13129;48.012;10.352;2023-02-01T07:52:00;2.00;99.90
25170;DHT22;13129;48.012;10.352;2023-02-01T07:54:25;2.10;99.90
25170;DHT22;13129;48.012;10.352;2023-02-01T07:56:51;2.10;99.90
25170;DHT22;13129;48.012;10.352;2023-02-01T07:59:17;2.10;99.90
25170;DHT22;13129;48.012;10.352;2023-02-01T08:01:43;2.10;99.90
25170;DHT22;13129;48.012;10.352;2023-02-01T08:04:11;2.10;99.90
25170;DHT22;13129;48.012;10.352;2023-02-01T08:06:37;2.10;99.90
25170;DHT22;13129;48.012;10.352;2023-02-01T08:09:04;2.20;99.90
25170;DHT22;13129;48.012;10.352;2023-02-01T08:11:30;2.10;99.90
25170;DHT22;13129;48.012;10.352;2023-02-01T08:13:56;2.30;99.90
25170;DHT22;13129;48.012;10.352;2023-02-01T08:16:22;2.20;99.90
25170;DHT22;13129;48.012;10.352;2023-02-01T08:18:49;2.30;99.90
25170;DHT22;13129;48.012;10.352;2023-02-01T08:21:40;2.40;99.90
25170;DHT22;13129;48.012;10.352;2023-02-01T08:24:08;2.60;99.90
25170;DHT22;13129;48.012;10.352;2023-02-01T08:26:35;2.50;99.90
25170;DHT22;13129;48.012;10.352;2023-02-01T08:29:03;2.50;99.90
25170;DHT22;13129;48.012;10.352;2023-02-01T08:31:29;2.50;99.90
25170;DHT22;13129;48.012;10.352;2023-02-01T08:33:57;2.50;99.90
25170;DHT22;13129;48.012;10.352;2023-02-01T08:36:25;2.50;99.90
25170;DHT22;13129;48.012;10.352;2023-02-01T08:38:51;2.50;99.90
25170;DHT22;13129;48.012;10.352;2023-02-01T08:41:19;2.40;99.90
25170;DHT22;13129;48.012;10.352;2023-02-01T08:43:46;2.40;99.90
25170;DHT22;13129;48.012;10.352;2023-02-01T08:46:12;2.40;99.90
25170;DHT22;13129;48.012;10.352;2023-02-01T08:48:38;2.40;99.90
25170;DHT22;13129;48.012;10.352;2023-02-01T08:51:06;2.50;99.90
25170;DHT22;13129;48.012;10.352;2023-02-01T08:53:31;2.50;99.90
25170;DHT22;13129;48.012;10.352;2023-02-01T08:55:57;2.60;99.90
25170;DHT22;13129;48.012;10.352;2023-02-01T08:58:23;2.70;99.90
25170;DHT22;13129;48.012;10.352;2023-02-01T09:00:49;2.70;99.90
25170;DHT22;13129;48.012;10.352;2023-02-01T09:03:15;2.80;99.90
25170;DHT22;13129;48.012;10.352;2023-02-01T09:05:41;2.90;99.90
25170;DHT22;13129;48.012;10.352;2023-02-01T09:08:07;3.00;99.90
25170;DHT22;13129;48.012;10.352;2023-02-01T09:10:33;3.10;99.90
25170;DHT22;13129;48.012;10.352;2023-02-01T09:12:59;3.30;99.90
25170;DHT22;13129;48.012;10.352;2023-02-01T09:15:25;3.30;99.90
25170;DHT22;13129;48.012;10.352;2023-02-01T09:17:50;3.30;99.90
25170;DHT22;13129;48.012;10.352;2023-02-01T09:20:16;3.20;99.90
25170;DHT22;13129;48.012;10.352;2023-02-01T09:22:42;3.10;99.90
25170;DHT22;13129;48.012;10.352;2023-02-01T09:25:08;3.10;99.90
25170;DHT22;13129;48.012;10.352;2023-02-01T09:27:34;3.10;99.90
25170;DHT22;13129;48.012;10.352;2023-02-01T09:30:01;3.00;99.90
25170;DHT22;13129;48.012;10.352;2023-02-01T09:32:26;3.00;99.90
25170;DHT22;13129;48.012;10.352;2023-02-01T09:34:52;3.00;99.90
25170;DHT22;13129;48.012;10.352;2023-02-01T09:37:19;3.00;99.90
25170;DHT22;13129;48.012;10.352;2023-02-01T09:39:45;3.10;99.90
25170;DHT22;13129;48.012;10.352;2023-02-01T09:42:33;3.00;99.90
25170;DHT22;13129;48.012;10.352;2023-02-01T09:45:19;3.10;99.90
25170;DHT22;13129;48.012;10.352;2023-02-01T09:47:54;3.10;99.90
25170;DHT22;13129;48.012;10.352;2023-02-01T09:50:31;3.10;99.90
25170;DHT22;13129;48.012;10.352;2023-02-01T09:53:02;3.20;99.90
25170;DHT22;13129;48.012;10.352;2023-02-01T09:58:16;3.30;99.90
25170;DHT22;13129;48.012;10.352;2023-02-01T10:00:50;3.30;99.90
25170;DHT22;13129;48.012;10.352;2023-02-01T10:03:17;3.30;99.90
25170;DHT22;13129;48.012;10.352;2023-02-01T10:17:30;3.50;99.90
25170;DHT22;13129;48.012;10.352;2023-02-01T10:20:59;3.40;99.90
25170;DHT22;13129;48.012;10.352;2023-02-01T10:26:24;3.30;99.90
25170;DHT22;13129;48.012;10.352;2023-02-01T10:28:57;3.50;99.90
25170;DHT22;13129;48.012;10.352;2023-02-01T10:31:26;3.70;99.90
25170;DHT22;13129;48.012;10.352;2023-02-01T10:33:59;3.90;99.90
25170;DHT22;13129;48.012;10.352;2023-02-01T10:36:33;4.00;99.90
25170;DHT22;13129;48.012;10.352;2023-02-01T10:39:02;4.00;99.90
25170;DHT22;13129;48.012;10.352;2023-02-01T10:41:39;3.90;99.90
25170;DHT22;13129;48.012;10.352;2023-02-01T10:44:14;3.80;99.90
25170;DHT22;13129;48.012;10.352;2023-02-01T10:46:41;3.80;99.90
25170;DHT22;13129;48.012;10.352;2023-02-01T10:49:14;3.70;99.90
25170;DHT22;13129;48.012;10.352;2023-02-01T10:51:47;3.70;99.90
25170;DHT22;13129;48.012;10.352;2023-02-01T10:54:18;3.80;99.90
25170;DHT22;13129;48.012;10.352;2023-02-01T10:56:46;3.90;99.90
25170;DHT22;13129;48.012;10.352;2023-02-01T10:59:18;4.00;99.90
25170;DHT22;13129;48.012;10.352;2023-02-01T11:01:47;4.00;99.90
25170;DHT22;13129;48.012;10.352;2023-02-01T11:04:14;4.20;99.90
25170;DHT22;13129;48.012;10.352;2023-02-01T11:06:45;4.30;99.90
25170;DHT22;13129;48.012;10.352;2023-02-01T11:09:22;4.50;99.90
25170;DHT22;13129;48.012;10.352;2023-02-01T11:14:16;5.50;99.90
25170;DHT22;13129;48.012;10.352;2023-02-01T11:16:48;6.00;99.90
25170;DHT22;13129;48.012;10.352;2023-02-01T11:19:16;6.00;99.90
25170;DHT22;13129;48.012;10.352;2023-02-01T11:21:43;5.80;99.90
25170;DHT22;13129;48.012;10.352;2023-02-01T11:24:38;5.50;99.90
25170;DHT22;13129;48.012;10.352;2023-02-01T11:27:12;5.30;99.90
25170;DHT22;13129;48.012;10.352;2023-02-01T11:29:42;5.40;99.90
25170;DHT22;13129;48.012;10.352;2023-02-01T11:32:10;6.00;99.90
25170;DHT22;13129;48.012;10.352;2023-02-01T11:37:27;5.80;99.90
25170;DHT22;13129;48.012;10.352;2023-02-01T11:39:59;5.50;99.90
25170;DHT22;13129;48.012;10.352;2023-02-01T11:42:26;5.20;99.90
25170;DHT22;13129;48.012;10.352;2023-02-01T11:45:15;5.00;99.90
25170;DHT22;13129;48.012;10.352;2023-02-01T11:47:42;4.70;99.90
25170;DHT22;13129;48.012;10.352;2023-02-01T11:50:23;4.50;99.90
25170;DHT22;13129;48.012;10.352;2023-02-01T11:53:19;4.40;99.90
25170;DHT22;13129;48.012;10.352;2023-02-01T11:55:55;4.30;99.90
25170;DHT22;13129;48.012;10.352;2023-02-01T12:07:44;4.00;99.90
25170;DHT22;13129;48.012;10.352;2023-02-01T12:10:15;4.00;99.90
25170;DHT22;13129;48.012;10.352;2023-02-01T12:13:10;4.00;99.90
25170;DHT22;13129;48.012;10.352;2023-02-01T12:35:43;4.30;99.90
25170;DHT22;13129;48.012;10.352;2023-02-01T12:38:26;4.30;99.90
25170;DHT22;13129;48.012;10.352;2023-02-01T12:41:27;4.30;99.90
25170;DHT22;13129;48.012;10.352;2023-02-01T12:47:17;4.40;99.90
25170;DHT22;13129;48.012;10.352;2023-02-01T12:49:58;4.40;99.90
25170;DHT22;13129;48.012;10.352;2023-02-01T12:52:35;4.30;99.90
25170;DHT22;13129;48.012;10.352;2023-02-01T12:55:38;4.30;99.90
25170;DHT22;13129;48.012;10.352;2023-02-01T13:01:21;4.20;99.90
25170;DHT22;13129;48.012;10.352;2023-02-01T13:04:12;4.10;99.90
25170;DHT22;13129;48.012;10.352;2023-02-01T13:06:43;4.10;99.90
25170;DHT22;13129;48.012;10.352;2023-02-01T13:09:36;4.10;99.90
25170;DHT22;13129;48.012;10.352;2023-02-01T13:12:19;4.00;99.90
25170;DHT22;13129;48.012;10.352;2023-02-01T13:15:01;4.00;99.90
25170;DHT22;13129;48.012;10.352;2023-02-01T13:17:30;3.90;99.90
25170;DHT22;13129;48.012;10.352;2023-02-01T13:20:05;3.90;99.90
25170;DHT22;13129;48.012;10.352;2023-02-01T13:22:39;3.80;99.90
25170;DHT22;13129;48.012;10.352;2023-02-01T13:25:56;3.80;99.90
25170;DHT22;13129;48.012;10.352;2023-02-01T13:28:06;3.80;99.90
25170;DHT22;13129;48.012;10.352;2023-02-01T13:36:13;3.60;99.90
25170;DHT22;13129;48.012;10.352;2023-02-01T13:42:16;3.50;99.90
25170;DHT22;13129;48.012;10.352;2023-02-01T13:45:01;3.50;99.90
25170;DHT22;13129;48.012;10.352;2023-02-01T13:47:40;3.40;99.90
25170;DHT22;13129;48.012;10.352;2023-02-01T13:50:26;3.40;99.90
25170;DHT22;13129;48.012;10.352;2023-02-01T13:55:46;3.40;99.90
25170;DHT22;13129;48.012;10.352;2023-02-01T13:58:40;3.40;99.90
25170;DHT22;13129;48.012;10.352;2023-02-01T14:06:42;3.30;99.90
25170;DHT22;13129;48.012;10.352;2023-02-01T14:17:30;3.30;99.90
25170;DHT22;13129;48.012;10.352;2023-02-01T14:19:33;3.20;99.90
25170;DHT22;13129;48.012;10.352;2023-02-01T14:24:50;3.30;99.90
25170;DHT22;13129;48.012;10.352;2023-02-01T14:27:22;3.20;99.90
25170;DHT22;13129;48.012;10.352;2023-02-01T14:29:58;3.30;99.90
25170;DHT22;13129;48.012;10.352;2023-02-01T14:32:37;3.30;99.90
25170;DHT22;13129;48.012;10.352;2023-02-01T14:35:28;3.30;99.90
25170;DHT22;13129;48.012;10.352;2023-02-01T14:37:58;3.30;99.90
25170;DHT22;13129;48.012;10.352;2023-02-01T14:40:26;3.30;99.90
25170;DHT22;13129;48.012;10.352;2023-02-01T14:42:54;3.30;99.90
25170;DHT22;13129;48.012;10.352;2023-02-01T14:50:46;3.20;99.90
25170;DHT22;13129;48.012;10.352;2023-02-01T14:56:12;2.90;99.90
25170;DHT22;13129;48.012;10.352;2023-02-01T14:59:13;2.60;99.90
25170;DHT22;13129;48.012;10.352;2023-02-01T15:01:50;2.40;99.90
25170;DHT22;13129;48.012;10.352;2023-02-01T15:04:18;2.30;99.90
25170;DHT22;13129;48.012;10.352;2023-02-01T15:06:48;2.30;99.90
25170;DHT22;13129;48.012;10.352;2023-02-01T15:09:20;2.30;99.90
25170;DHT22;13129;48.012;10.352;2023-02-01T15:11:56;2.40;99.90
25170;DHT22;13129;48.012;10.352;2023-02-01T15:14:23;2.50;99.90
25170;DHT22;13129;48.012;10.352;2023-02-01T15:16:49;2.50;99.90
25170;DHT22;13129;48.012;10.352;2023-02-01T15:19:25;2.60;99.90
25170;DHT22;13129;48.012;10.352;2023-02-01T15:21:52;2.60;99.90
25170;DHT22;13129;48.012;10.352;2023-02-01T15:24:23;2.60;99.90
25170;DHT22;13129;48.012;10.352;2023-02-01T15:26:51;2.70;99.90
25170;DHT22;13129;48.012;10.352;2023-02-01T15:29:17;2.70;99.90
25170;DHT22;13129;48.012;10.352;2023-02-01T15:31:46;2.70;99.90
25170;DHT22;13129;48.012;10.352;2023-02-01T15:34:12;2.70;99.90
25170;DHT22;13129;48.012;10.352;2023-02-01T15:36:39;2.70;99.90
25170;DHT22;13129;48.012;10.352;2023-02-01T15:39:24;2.70;99.90
25170;DHT22;13129;48.012;10.352;2023-02-01T15:41:55;2.70;99.90
25170;DHT22;13129;48.012;10.352;2023-02-01T15:46:53;2.70;99.90
25170;DHT22;13129;48.012;10.352;2023-02-01T15:51:48;2.80;99.90
25170;DHT22;13129;48.012;10.352;2023-02-01T15:54:28;2.80;99.90
25170;DHT22;13129;48.012;10.352;2023-02-01T15:56:57;2.80;99.90
25170;DHT22;13129;48.012;10.352;2023-02-01T15:59:41;2.80;99.90
25170;DHT22;13129;48.012;10.352;2023-02-01T16:02:42;2.80;99.90
25170;DHT22;13129;48.012;10.352;2023-02-01T16:08:14;2.80;99.90
25170;DHT22;13129;48.012;10.352;2023-02-01T16:10:45;2.70;99.90
25170;DHT22;13129;48.012;10.352;2023-02-01T16:13:13;2.70;99.90
25170;DHT22;13129;48.012;10.352;2023-02-01T16:15:39;2.80;99.90
25170;DHT22;13129;48.012;10.352;2023-02-01T16:18:06;2.80;99.90
25170;DHT22;13129;48.012;10.352;2023-02-01T16:20:35;2.70;99.90
25170;DHT22;13129;48.012;10.352;2023-02-01T16:23:02;2.70;99.90
25170;DHT22;13129;48.012;10.352;2023-02-01T16:25:29;2.70;99.90
25170;DHT22;13129;48.012;10.352;2023-02-01T16:27:56;2.70;99.90
25170;DHT22;13129;48.012;10.352;2023-02-01T16:30:21;2.70;99.90
25170;DHT22;13129;48.012;10.352;2023-02-01T16:32:55;2.70;99.90
25170;DHT22;13129;48.012;10.352;2023-02-01T16:35:28;2.70;99.90
25170;DHT22;13129;48.012;10.352;2023-02-01T16:37:57;2.70;99.90
25170;DHT22;13129;48.012;10.352;2023-02-01T16:40:23;2.60;99.90
25170;DHT22;13129;48.012;10.352;2023-02-01T16:42:51;2.70;99.90
25170;DHT22;13129;48.012;10.352;2023-02-01T16:45:19;2.70;99.90
25170;DHT22;13129;48.012;10.352;2023-02-01T16:47:48;2.60;99.90
25170;DHT22;13129;48.012;10.352;2023-02-01T16:50:19;2.70;99.90
25170;DHT22;13129;48.012;10.352;2023-02-01T16:52:46;2.70;99.90
25170;DHT22;13129;48.012;10.352;2023-02-01T16:55:16;2.70;99.90
25170;DHT22;13129;48.012;10.352;2023-02-01T16:57:43;2.70;99.90
25170;DHT22;13129;48.012;10.352;2023-02-01T17:00:10;2.80;99.90
25170;DHT22;13129;48.012;10.352;2023-02-01T17:02:37;2.70;99.90
25170;DHT22;13129;48.012;10.352;2023-02-01T17:05:04;2.70;99.90
25170;DHT22;13129;48.012;10.352;2023-02-01T17:07:30;2.70;99.90
25170;DHT22;13129;48.012;10.352;2023-02-01T17:09:56;2.70;99.90
25170;DHT22;13129;48.012;10.352;2023-02-01T17:14:49;2.80;99.90
25170;DHT22;13129;48.012;10.352;2023-02-01T17:17:15;2.70;99.90
25170;DHT22;13129;48.012;10.352;2023-02-01T17:19:42;2.80;99.90
25170;DHT22;13129;48.012;10.352;2023-02-01T17:22:08;2.70;99.90
25170;DHT22;13129;48.012;10.352;2023-02-01T17:24:34;2.70;99.90
25170;DHT22;13129;48.012;10.352;2023-02-01T17:26:59;2.80;99.90
25170;DHT22;13129;48.012;10.352;2023-02-01T17:29:25;2.80;99.90
25170;DHT22;13129;48.012;10.352;2023-02-01T17:31:53;2.80;99.90
25170;DHT22;13129;48.012;10.352;2023-02-01T17:34:19;2.70;99.90
25170;DHT22;13129;48.012;10.352;2023-02-01T17:36:46;2.80;99.90
25170;DHT22;13129;48.012;10.352;2023-02-01T17:39:13;2.70;99.90
25170;DHT22;13129;48.012;10.352;2023-02-01T17:42:00;2.80;99.90
25170;DHT22;13129;48.012;10.352;2023-02-01T17:44:27;2.70;99.90
25170;DHT22;13129;48.012;10.352;2023-02-01T17:46:52;2.70;99.90
25170;DHT22;13129;48.012;10.352;2023-02-01T17:49:18;2.70;99.90
25170;DHT22;13129;48.012;10.352;2023-02-01T17:51:43;2.70;99.90
25170;DHT22;13129;48.012;10.352;2023-02-01T17:54:13;2.70;99.90
25170;DHT22;13129;48.012;10.352;2023-02-01T17:56:39;2.70;99.90
25170;DHT22;13129;48.012;10.352;2023-02-01T17:59:05;2.70;99.90
25170;DHT22;13129;48.012;10.352;2023-02-01T18:01:31;2.70;99.90
25170;DHT22;13129;48.012;10.352;2023-02-01T18:03:57;2.70;99.90
25170;DHT22;13129;48.012;10.352;2023-02-01T18:06:24;2.70;99.90
25170;DHT22;13129;48.012;10.352;2023-02-01T18:08:52;2.70;99.90
25170;DHT22;13129;48.012;10.352;2023-02-01T18:11:20;2.70;99.90
25170;DHT22;13129;48.012;10.352;2023-02-01T18:13:47;2.70;99.90
25170;DHT22;13129;48.012;10.352;2023-02-01T18:16:19;2.70;99.90
25170;DHT22;13129;48.012;10.352;2023-02-01T18:18:46;2.60;99.90
25170;DHT22;13129;48.012;10.352;2023-02-01T18:21:12;2.60;99.90
25170;DHT22;13129;48.012;10.352;2023-02-01T18:23:40;2.60;99.90
25170;DHT22;13129;48.012;10.352;2023-02-01T18:26:10;2.60;99.90
25170;DHT22;13129;48.012;10.352;2023-02-01T18:28:37;2.60;99.90
25170;DHT22;13129;48.012;10.352;2023-02-01T18:31:05;2.60;99.90
25170;DHT22;13129;48.012;10.352;2023-02-01T18:33:31;2.60;99.90
25170;DHT22;13129;48.012;10.352;2023-02-01T18:35:59;2.60;99.90
25170;DHT22;13129;48.012;10.352;2023-02-01T18:38:24;2.60;99.90
25170;DHT22;13129;48.012;10.352;2023-02-01T18:40:54;2.60;99.90
25170;DHT22;13129;48.012;10.352;2023-02-01T18:43:23;2.60;99.90
25170;DHT22;13129;48.012;10.352;2023-02-01T18:45:49;2.60;99.90
25170;DHT22;13129;48.012;10.352;2023-02-01T18:48:17;2.60;99.90
25170;DHT22;13129;48.012;10.352;2023-02-01T18:50:46;2.60;99.90
25170;DHT22;13129;48.012;10.352;2023-02-01T18:53:15;2.60;99.90
25170;DHT22;13129;48.012;10.352;2023-02-01T18:55:41;2.60;99.90
25170;DHT22;13129;48.012;10.352;2023-02-01T18:58:09;2.60;99.90
25170;DHT22;13129;48.012;10.352;2023-02-01T19:00:36;2.60;99.90
25170;DHT22;13129;48.012;10.352;2023-02-01T19:03:02;2.70;99.90
25170;DHT22;13129;48.012;10.352;2023-02-01T19:05:27;2.60;99.90
25170;DHT22;13129;48.012;10.352;2023-02-01T19:07:54;2.60;99.90
25170;DHT22;13129;48.012;10.352;2023-02-01T19:10:21;2.70;99.90
25170;DHT22;13129;48.012;10.352;2023-02-01T19:12:49;2.60;99.90
25170;DHT22;13129;48.012;10.352;2023-02-01T19:15:15;2.70;99.90
25170;DHT22;13129;48.012;10.352;2023-02-01T19:17:43;2.70;99.90
25170;DHT22;13129;48.012;10.352;2023-02-01T19:20:11;2.70;99.90
25170;DHT22;13129;48.012;10.352;2023-02-01T19:22:37;2.70;99.90
25170;DHT22;13129;48.012;10.352;2023-02-01T19:25:05;2.60;99.90
25170;DHT22;13129;48.012;10.352;2023-02-01T19:27:31;2.60;99.90
25170;DHT22;13129;48.012;10.352;2023-02-01T19:29:57;2.70;99.90
25170;DHT22;13129;48.012;10.352;2023-02-01T19:32:22;2.60;99.90
25170;DHT22;13129;48.012;10.352;2023-02-01T19:34:48;2.60;99.90
25170;DHT22;13129;48.012;10.352;2023-02-01T19:37:14;2.60;99.90
25170;DHT22;13129;48.012;10.352;2023-02-01T19:39:42;2.60;99.90
25170;DHT22;13129;48.012;10.352;2023-02-01T19:42:07;2.60;99.90
25170;DHT22;13129;48.012;10.352;2023-02-01T19:44:34;2.70;99.90
25170;DHT22;13129;48.012;10.352;2023-02-01T19:47:00;2.70;99.90
25170;DHT22;13129;48.012;10.352;2023-02-01T19:49:26;2.70;99.90
25170;DHT22;13129;48.012;10.352;2023-02-01T19:51:51;2.70;99.90
25170;DHT22;13129;48.012;10.352;2023-02-01T19:54:17;2.70;99.90
25170;DHT22;13129;48.012;10.352;2023-02-01T19:56:43;2.70;99.90
25170;DHT22;13129;48.012;10.352;2023-02-01T19:59:10;2.70;99.90
25170;DHT22;13129;48.012;10.352;2023-02-01T20:01:36;2.70;99.90
25170;DHT22;13129;48.012;10.352;2023-02-01T20:04:03;2.80;99.90
25170;DHT22;13129;48.012;10.352;2023-02-01T20:06:34;2.70;99.90
25170;DHT22;13129;48.012;10.352;2023-02-01T20:09:02;2.70;99.90
25170;DHT22;13129;48.012;10.352;2023-02-01T20:11:28;2.70;99.90
25170;DHT22;13129;48.012;10.352;2023-02-01T20:13:57;2.70;99.90
25170;DHT22;13129;48.012;10.352;2023-02-01T20:16:25;2.70;99.90
25170;DHT22;13129;48.012;10.352;2023-02-01T20:18:51;2.70;99.90
25170;DHT22;13129;48.012;10.352;2023-02-01T20:21:17;2.70;99.90
25170;DHT22;13129;48.012;10.352;2023-02-01T20:23:44;2.80;99.90
25170;DHT22;13129;48.012;10.352;2023-02-01T20:26:12;2.70;99.90
25170;DHT22;13129;48.012;10.352;2023-02-01T20:28:38;2.70;99.90
25170;DHT22;13129;48.012;10.352;2023-02-01T20:31:05;2.80;99.90
25170;DHT22;13129;48.012;10.352;2023-02-01T20:33:32;2.80;99.90
25170;DHT22;13129;48.012;10.352;2023-02-01T20:35:58;2.80;99.90
25170;DHT22;13129;48.012;10.352;2023-02-01T20:38:24;2.80;99.90
25170;DHT22;13129;48.012;10.352;2023-02-01T20:40:50;2.80;99.90
25170;DHT22;13129;48.012;10.352;2023-02-01T20:43:16;2.70;99.90
25170;DHT22;13129;48.012;10.352;2023-02-01T20:45:42;2.80;99.90
25170;DHT22;13129;48.012;10.352;2023-02-01T20:48:10;2.70;99.90
25170;DHT22;13129;48.012;10.352;2023-02-01T20:50:37;2.80;99.90
25170;DHT22;13129;48.012;10.352;2023-02-01T20:53:03;2.70;99.90
25170;DHT22;13129;48.012;10.352;2023-02-01T20:55:29;2.70;99.90
25170;DHT22;13129;48.012;10.352;2023-02-01T20:57:56;2.70;99.90
25170;DHT22;13129;48.012;10.352;2023-02-01T21:00:22;2.80;99.90
25170;DHT22;13129;48.012;10.352;2023-02-01T21:02:48;2.70;99.90
25170;DHT22;13129;48.012;10.352;2023-02-01T21:05:15;2.70;99.90
25170;DHT22;13129;48.012;10.352;2023-02-01T21:07:41;2.70;99.90
25170;DHT22;13129;48.012;10.352;2023-02-01T21:10:08;2.70;99.90
25170;DHT22;13129;48.012;10.352;2023-02-01T21:12:34;2.70;99.90
25170;DHT22;13129;48.012;10.352;2023-02-01T21:15:00;2.70;99.90
25170;DHT22;13129;48.012;10.352;2023-02-01T21:17:29;2.70;99.90
25170;DHT22;13129;48.012;10.352;2023-02-01T21:19:55;2.70;99.90
25170;DHT22;13129;48.012;10.352;2023-02-01T21:22:20;2.70;99.90
25170;DHT22;13129;48.012;10.352;2023-02-01T21:24:46;2.80;99.90
25170;DHT22;13129;48.012;10.352;2023-02-01T21:27:12;2.70;99.90
25170;DHT22;13129;48.012;10.352;2023-02-01T21:29:38;2.70;99.90
25170;DHT22;13129;48.012;10.352;2023-02-01T21:32:05;2.60;99.90
25170;DHT22;13129;48.012;10.352;2023-02-01T21:34:32;2.70;99.90
25170;DHT22;13129;48.012;10.352;2023-02-01T21:36:58;2.60;99.90
25170;DHT22;13129;48.012;10.352;2023-02-01T21:39:23;2.70;99.90
25170;DHT22;13129;48.012;10.352;2023-02-01T21:41:49;2.60;99.90
25170;DHT22;13129;48.012;10.352;2023-02-01T21:44:33;2.60;99.90
25170;DHT22;13129;48.012;10.352;2023-02-01T21:46:59;2.70;99.90
25170;DHT22;13129;48.012;10.352;2023-02-01T21:49:25;2.60;99.90
25170;DHT22;13129;48.012;10.352;2023-02-01T21:51:51;2.60;99.90
25170;DHT22;13129;48.012;10.352;2023-02-01T21:54:17;2.60;99.90
25170;DHT22;13129;48.012;10.352;2023-02-01T21:56:43;2.70;99.90
25170;DHT22;13129;48.012;10.352;2023-02-01T21:59:09;2.60;99.90